Clifford Maersk — OYRO2 — position and weather

sailwx.info

Track history (hours):
 
Tides and Currents Weather Stations Pressure Air Temp Water Temp Dewpoint Dewpoint Depression Visibility Wind Speed Wind Dir Waves Ship Positions

Clifford Maersk

Last reported at 2015-Feb-22 07:12 UTC. Time now 2015-Mar-02 05:04 UTC.
Position N 30°35' E 122°41'.

Type: Ship (hazmat cat A). MMSI: 219840000.

Date/timePositionNaut miles runAvg speedWind from/ knotsBaromVisibWave heightAir tempDewpointWater temp
2015-Feb-22 07:12N 30°35' E 122°41'10 9.4
2015-Feb-22 06:09N 30°44' E 122°38'1 0.5
2015-Feb-22 03:25N 30°46' E 122°38'0 0.0
2015-Feb-22 02:31N 30°46' E 122°38'0 0.0
2015-Feb-22 01:31N 30°46' E 122°38'0 0.3
2015-Feb-22 00:25N 30°45' E 122°38'0 0.0
2015-Feb-21 19:22N 30°46' E 122°38'0 0.2
2015-Feb-21 18:22N 30°46' E 122°38'0 0.1
2015-Feb-21 16:25N 30°46' E 122°38'0 0.1
2015-Feb-21 15:28N 30°46' E 122°38'0 0.1
2015-Feb-21 14:10N 30°46' E 122°38'0 0.1
2015-Feb-21 13:16N 30°46' E 122°38'0 0.1
2015-Feb-21 10:31N 30°45' E 122°38'0 0.1
2015-Feb-21 09:31N 30°45' E 122°38'0 0.1
2015-Feb-21 08:19N 30°45' E 122°38'0 0.0
2015-Feb-21 05:28N 30°46' E 122°38'0 0.2
2015-Feb-21 04:31N 30°46' E 122°38'0 0.2
2015-Feb-21 03:31N 30°46' E 122°38'0 0.1
2015-Feb-21 02:31N 30°46' E 122°38'0 0.1
2015-Feb-21 00:25N 30°45' E 122°38'0 0.1
2015-Feb-20 23:31N 30°45' E 122°38'0 0.1
2015-Feb-20 22:31N 30°45' E 122°38'0 0.0
2015-Feb-20 20:13N 30°45' E 122°38'0 0.3
2015-Feb-20 19:25N 30°46' E 122°38'0 0.1
2015-Feb-20 15:28N 30°46' E 122°38'0 0.0
2015-Feb-20 13:19N 30°46' E 122°38'0 0.0
2015-Feb-20 12:31N 30°46' E 122°38'0 0.3
2015-Feb-20 11:13N 30°45' E 122°38'0 0.0
2015-Feb-20 09:31N 30°45' E 122°38'0 0.0
2015-Feb-20 08:25N 30°45' E 122°38'0 0.2
2015-Feb-20 07:22N 30°46' E 122°38'0 0.1
2015-Feb-20 05:25N 30°46' E 122°38'0 0.0
2015-Feb-20 02:19N 30°46' E 122°38'0 0.1
2015-Feb-20 01:19N 30°46' E 122°38'0 0.2
2015-Feb-20 00:25N 30°46' E 122°38'0 0.2
2015-Feb-19 23:07N 30°45' E 122°38'0 0.2
2015-Feb-19 22:33N 30°45' E 122°38'0 0.1
2015-Feb-19 21:33N 30°45' E 122°38'0 0.4
2015-Feb-19 20:21N 30°45' E 122°38'1 1.0
2015-Feb-19 19:33N 30°46' E 122°38'0 0.3
2015-Feb-19 18:12N 30°46' E 122°38'0 0.1
2015-Feb-19 16:21N 30°46' E 122°37'0 0.0
2015-Feb-19 15:03N 30°46' E 122°37'0 0.1
2015-Feb-19 12:34N 30°46' E 122°37'1413.8
2015-Feb-19 11:33N 30°34' E 122°45'4213.8
2015-Feb-19 08:30N 29°56' E 123°05'1718.0
2015-Feb-19 07:33N 29°52' E 122°46'1716.6
2015-Feb-19 06:34N 29°46' E 122°28'1111.2
2015-Feb-19 05:33N 29°48' E 122°15'10 9.7
2015-Feb-19 04:33N 29°47' E 122°04'3 1.0
2015-Feb-19 01:22N 29°46' E 122°01'0 0.0
2015-Feb-18 23:16N 29°46' E 122°01'0 0.0
2015-Feb-18 22:28N 29°46' E 122°01'0 0.0
2015-Feb-18 21:22N 29°46' E 122°01'0 0.0
2015-Feb-18 20:10N 29°46' E 122°01'0 0.0
2015-Feb-18 19:16N 29°46' E 122°01'0 0.0
2015-Feb-18 18:22N 29°46' E 122°01'0 0.0
2015-Feb-18 17:16N 29°46' E 122°01'0 0.0
2015-Feb-18 16:16N 29°46' E 122°01'0 0.0
2015-Feb-18 15:28N 29°46' E 122°01'0 0.0
2015-Feb-18 13:16N 29°46' E 122°01'0 0.0
2015-Feb-18 12:16N 29°46' E 122°01'0 0.0
2015-Feb-18 10:25N 29°46' E 122°01'0 0.0
2015-Feb-18 09:10N 29°46' E 122°01'0 0.0
2015-Feb-18 08:28N 29°46' E 122°01'0 0.0
2015-Feb-18 04:28N 29°46' E 122°01'0 0.0
2015-Feb-18 03:22N 29°46' E 122°01'0 0.0
2015-Feb-18 01:33N 29°46' E 122°01'4 4.2
2015-Feb-18 00:33N 29°48' E 122°05'10 9.9
2015-Feb-17 23:33N 29°47' E 122°16'5 3.9
2015-Feb-17 22:24N 29°46' E 122°22'0 0.1
2015-Feb-17 21:33N 29°46' E 122°22'0 0.1
2015-Feb-17 20:27N 29°46' E 122°22'0 0.1
2015-Feb-17 19:03N 29°46' E 122°22'0 0.1
2015-Feb-17 17:33N 29°46' E 122°22'0 0.0
2015-Feb-17 16:09N 29°46' E 122°22'0 0.1
2015-Feb-17 14:27N 29°46' E 122°22'0 0.1
2015-Feb-17 13:33N 29°46' E 122°22'0 0.0
2015-Feb-17 12:03N 29°46' E 122°22'0 0.1
2015-Feb-17 11:33N 29°46' E 122°22'0 0.1
2015-Feb-17 10:33N 29°46' E 122°22'0 0.1
2015-Feb-17 09:15N 29°46' E 122°22'0 0.0
2015-Feb-17 08:33N 29°46' E 122°22'1 0.9
2015-Feb-17 07:33N 29°46' E 122°23'1 0.5
2015-Feb-17 06:20N 29°46' E 122°23'0 0.3
2015-Feb-17 05:34N 29°46' E 122°23'2 1.7
2015-Feb-17 04:33N 29°45' E 122°25'10 9.9
2015-Feb-17 03:33N 29°49' E 122°35'1212.1
2015-Feb-17 02:33N 29°56' E 122°47'1312.3
2015-Feb-17 01:31N 30°03' E 122°59'2310.6
2015-Feb-16 23:21N 30°24' E 122°50'1010.9
2015-Feb-16 22:24N 30°29' E 122°39'1011.3
2015-Feb-16 21:32N 30°31' E 122°28'1111.7
2015-Feb-16 20:34N 30°33' E 122°15'1110.7
2015-Feb-16 19:32N 30°37' E 122°04'0 0.3
2015-Feb-16 18:32N 30°37' E 122°04'0 0.0
2015-Feb-16 17:32N 30°37' E 122°04'0 0.1
2015-Feb-16 16:32N 30°37' E 122°04'0 0.1
2015-Feb-16 15:32N 30°37' E 122°04'0 0.0
2015-Feb-16 14:29N 30°37' E 122°04'0 0.0
2015-Feb-16 13:20N 30°37' E 122°04'0 0.0
2015-Feb-16 11:29N 30°37' E 122°04'0 0.0
2015-Feb-16 09:27N 30°37' E 122°04'0 0.0
2015-Feb-16 08:24N 30°37' E 122°04'0 0.1
2015-Feb-16 07:33N 30°37' E 122°04'0 0.0
2015-Feb-16 05:27N 30°37' E 122°04'0 0.0
2015-Feb-16 03:09N 30°37' E 122°04'0 0.0
2015-Feb-16 02:27N 30°37' E 122°04'3 3.6
2015-Feb-16 01:33N 30°35' E 122°07'1313.0
2015-Feb-16 00:33N 30°33' E 122°22'18 1.0
2015-Feb-15 07:08N 30°28' E 122°41'0 0.1
2015-Feb-15 06:14N 30°28' E 122°41'0 0.1
2015-Feb-15 05:26N 30°28' E 122°41'0 0.0
2015-Feb-15 04:17N 30°28' E 122°41'3 0.1
2015-Feb-13 12:29N 30°30' E 122°43'6 5.7
2015-Feb-13 11:30N 30°34' E 122°48'4 4.1
2015-Feb-13 10:33N 30°30' E 122°48'7 6.1
2015-Feb-13 09:29N 30°31' E 122°40'5 5.7
2015-Feb-13 08:33N 30°32' E 122°34'6 5.6
2015-Feb-13 07:33N 30°33' E 122°28'1 1.2
2015-Feb-13 06:32N 30°32' E 122°29'8 7.5
2015-Feb-13 05:31N 30°32' E 122°38'8 7.8
2015-Feb-13 04:32N 30°33' E 122°47'1111.3
2015-Feb-13 03:33N 30°35' E 122°60'  
Track history (hours):
 
Tides and Currents Weather Stations Pressure Air Temp Water Temp Dewpoint Dewpoint Depression Visibility Wind Speed Wind Dir Waves Ship Positions

Clifford Maersk

Last reported at 2015-Feb-22 07:12 UTC. Time now 2015-Mar-02 05:05 UTC.
Position N 30°35' E 122°41'.

Type: Ship (hazmat cat A). MMSI: 219840000.

Date/timePositionNaut miles runAvg speedWind from/ knotsBaromVisibWave heightAir tempDewpointWater temp
2015-Feb-22 07:12N 30°35' E 122°41'10 9.4
2015-Feb-22 06:09N 30°44' E 122°38'1 0.5
2015-Feb-22 03:25N 30°46' E 122°38'0 0.0
2015-Feb-22 02:31N 30°46' E 122°38'0 0.0
2015-Feb-22 01:31N 30°46' E 122°38'0 0.3
2015-Feb-22 00:25N 30°45' E 122°38'0 0.0
2015-Feb-21 19:22N 30°46' E 122°38'0 0.2
2015-Feb-21 18:22N 30°46' E 122°38'0 0.1
2015-Feb-21 16:25N 30°46' E 122°38'0 0.1
2015-Feb-21 15:28N 30°46' E 122°38'0 0.1
2015-Feb-21 14:10N 30°46' E 122°38'0 0.1
2015-Feb-21 13:16N 30°46' E 122°38'0 0.1
2015-Feb-21 10:31N 30°45' E 122°38'0 0.1
2015-Feb-21 09:31N 30°45' E 122°38'0 0.1
2015-Feb-21 08:19N 30°45' E 122°38'0 0.0
2015-Feb-21 05:28N 30°46' E 122°38'0 0.2
2015-Feb-21 04:31N 30°46' E 122°38'0 0.2
2015-Feb-21 03:31N 30°46' E 122°38'0 0.1
2015-Feb-21 02:31N 30°46' E 122°38'0 0.1
2015-Feb-21 00:25N 30°45' E 122°38'0 0.1
2015-Feb-20 23:31N 30°45' E 122°38'0 0.1
2015-Feb-20 22:31N 30°45' E 122°38'0 0.0
2015-Feb-20 20:13N 30°45' E 122°38'0 0.3
2015-Feb-20 19:25N 30°46' E 122°38'0 0.1
2015-Feb-20 15:28N 30°46' E 122°38'0 0.0
2015-Feb-20 13:19N 30°46' E 122°38'0 0.0
2015-Feb-20 12:31N 30°46' E 122°38'0 0.3
2015-Feb-20 11:13N 30°45' E 122°38'0 0.0
2015-Feb-20 09:31N 30°45' E 122°38'0 0.0
2015-Feb-20 08:25N 30°45' E 122°38'0 0.2
2015-Feb-20 07:22N 30°46' E 122°38'0 0.1
2015-Feb-20 05:25N 30°46' E 122°38'0 0.0
2015-Feb-20 02:19N 30°46' E 122°38'0 0.1
2015-Feb-20 01:19N 30°46' E 122°38'0 0.2
2015-Feb-20 00:25N 30°46' E 122°38'0 0.2
2015-Feb-19 23:07N 30°45' E 122°38'0 0.2
2015-Feb-19 22:33N 30°45' E 122°38'0 0.1
2015-Feb-19 21:33N 30°45' E 122°38'0 0.4
2015-Feb-19 20:21N 30°45' E 122°38'1 1.0
2015-Feb-19 19:33N 30°46' E 122°38'0 0.3
2015-Feb-19 18:12N 30°46' E 122°38'0 0.1
2015-Feb-19 16:21N 30°46' E 122°37'0 0.0
2015-Feb-19 15:03N 30°46' E 122°37'0 0.1
2015-Feb-19 12:34N 30°46' E 122°37'1413.8
2015-Feb-19 11:33N 30°34' E 122°45'4213.8
2015-Feb-19 08:30N 29°56' E 123°05'1718.0
2015-Feb-19 07:33N 29°52' E 122°46'1716.6
2015-Feb-19 06:34N 29°46' E 122°28'1111.2
2015-Feb-19 05:33N 29°48' E 122°15'10 9.7
2015-Feb-19 04:33N 29°47' E 122°04'3 1.0
2015-Feb-19 01:22N 29°46' E 122°01'0 0.0
2015-Feb-18 23:16N 29°46' E 122°01'0 0.0
2015-Feb-18 22:28N 29°46' E 122°01'0 0.0
2015-Feb-18 21:22N 29°46' E 122°01'0 0.0
2015-Feb-18 20:10N 29°46' E 122°01'0 0.0
2015-Feb-18 19:16N 29°46' E 122°01'0 0.0
2015-Feb-18 18:22N 29°46' E 122°01'0 0.0
2015-Feb-18 17:16N 29°46' E 122°01'0 0.0
2015-Feb-18 16:16N 29°46' E 122°01'0 0.0
2015-Feb-18 15:28N 29°46' E 122°01'0 0.0
2015-Feb-18 13:16N 29°46' E 122°01'0 0.0
2015-Feb-18 12:16N 29°46' E 122°01'0 0.0
2015-Feb-18 10:25N 29°46' E 122°01'0 0.0
2015-Feb-18 09:10N 29°46' E 122°01'0 0.0
2015-Feb-18 08:28N 29°46' E 122°01'0 0.0
2015-Feb-18 04:28N 29°46' E 122°01'0 0.0
2015-Feb-18 03:22N 29°46' E 122°01'0 0.0
2015-Feb-18 01:33N 29°46' E 122°01'4 4.2
2015-Feb-18 00:33N 29°48' E 122°05'10 9.9
2015-Feb-17 23:33N 29°47' E 122°16'5 3.9
2015-Feb-17 22:24N 29°46' E 122°22'0 0.1
2015-Feb-17 21:33N 29°46' E 122°22'0 0.1
2015-Feb-17 20:27N 29°46' E 122°22'0 0.1
2015-Feb-17 19:03N 29°46' E 122°22'0 0.1
2015-Feb-17 17:33N 29°46' E 122°22'0 0.0
2015-Feb-17 16:09N 29°46' E 122°22'0 0.1
2015-Feb-17 14:27N 29°46' E 122°22'0 0.1
2015-Feb-17 13:33N 29°46' E 122°22'0 0.0
2015-Feb-17 12:03N 29°46' E 122°22'0 0.1
2015-Feb-17 11:33N 29°46' E 122°22'0 0.1
2015-Feb-17 10:33N 29°46' E 122°22'0 0.1
2015-Feb-17 09:15N 29°46' E 122°22'0 0.0
2015-Feb-17 08:33N 29°46' E 122°22'1 0.9
2015-Feb-17 07:33N 29°46' E 122°23'1 0.5
2015-Feb-17 06:20N 29°46' E 122°23'0 0.3
2015-Feb-17 05:34N 29°46' E 122°23'2 1.7
2015-Feb-17 04:33N 29°45' E 122°25'10 9.9
2015-Feb-17 03:33N 29°49' E 122°35'1212.1
2015-Feb-17 02:33N 29°56' E 122°47'1312.3
2015-Feb-17 01:31N 30°03' E 122°59'2310.6
2015-Feb-16 23:21N 30°24' E 122°50'1010.9
2015-Feb-16 22:24N 30°29' E 122°39'1011.3
2015-Feb-16 21:32N 30°31' E 122°28'1111.7
2015-Feb-16 20:34N 30°33' E 122°15'1110.7
2015-Feb-16 19:32N 30°37' E 122°04'0 0.3
2015-Feb-16 18:32N 30°37' E 122°04'0 0.0
2015-Feb-16 17:32N 30°37' E 122°04'0 0.1
2015-Feb-16 16:32N 30°37' E 122°04'0 0.1
2015-Feb-16 15:32N 30°37' E 122°04'0 0.0
2015-Feb-16 14:29N 30°37' E 122°04'0 0.0
2015-Feb-16 13:20N 30°37' E 122°04'0 0.0
2015-Feb-16 11:29N 30°37' E 122°04'0 0.0
2015-Feb-16 09:27N 30°37' E 122°04'0 0.0
2015-Feb-16 08:24N 30°37' E 122°04'0 0.1
2015-Feb-16 07:33N 30°37' E 122°04'0 0.0
2015-Feb-16 05:27N 30°37' E 122°04'0 0.0
2015-Feb-16 03:09N 30°37' E 122°04'0 0.0
2015-Feb-16 02:27N 30°37' E 122°04'3 3.6
2015-Feb-16 01:33N 30°35' E 122°07'1313.0
2015-Feb-16 00:33N 30°33' E 122°22'18 1.0
2015-Feb-15 07:08N 30°28' E 122°41'0 0.1
2015-Feb-15 06:14N 30°28' E 122°41'0 0.1
2015-Feb-15 05:26N 30°28' E 122°41'0 0.0
2015-Feb-15 04:17N 30°28' E 122°41'3 0.1
2015-Feb-13 12:29N 30°30' E 122°43'6 5.7
2015-Feb-13 11:30N 30°34' E 122°48'4 4.1
2015-Feb-13 10:33N 30°30' E 122°48'7 6.1
2015-Feb-13 09:29N 30°31' E 122°40'5 5.7
2015-Feb-13 08:33N 30°32' E 122°34'6 5.6
2015-Feb-13 07:33N 30°33' E 122°28'1 1.2
2015-Feb-13 06:32N 30°32' E 122°29'8 7.5
2015-Feb-13 05:31N 30°32' E 122°38'8 7.8
2015-Feb-13 04:32N 30°33' E 122°47'1111.3
2015-Feb-13 03:33N 30°35' E 122°60'  

Dump ship's entire track history